createdAt,value
2023-04-18T00:00:12.771Z,9.06
2023-04-18T00:03:04.847Z,9.05
2023-04-18T00:05:34.602Z,9.04
2023-04-18T00:08:05.554Z,9.02
2023-04-18T00:10:37.310Z,9.02
2023-04-18T00:13:08.774Z,9.02
2023-04-18T00:15:38.894Z,9.04
2023-04-18T00:18:11.068Z,9.04
2023-04-18T00:20:42.983Z,9.05
2023-04-18T00:23:15.378Z,9.07
2023-04-18T00:25:46.238Z,9.08
2023-04-18T00:28:15.702Z,9.09
2023-04-18T00:30:47.298Z,9.10
2023-04-18T00:33:19.698Z,9.11
2023-04-18T00:35:50.522Z,9.10
2023-04-18T00:38:20.024Z,9.12
2023-04-18T00:40:50.633Z,9.12
2023-04-18T00:43:24.954Z,9.14
2023-04-18T00:45:54.471Z,9.14
2023-04-18T00:48:24.885Z,9.16
2023-04-18T00:50:57.934Z,9.17
2023-04-18T00:53:29.831Z,9.18
2023-04-18T00:56:02.528Z,9.18
2023-04-18T00:58:35.026Z,9.18
2023-04-18T01:01:11.095Z,9.18
2023-04-18T01:03:41.700Z,9.18
2023-04-18T01:06:13.998Z,9.17
2023-04-18T01:08:45.032Z,9.20
2023-04-18T01:11:18.505Z,9.20
2023-04-18T01:14:14.686Z,9.20
2023-04-18T01:16:47.573Z,9.21
2023-04-18T01:19:19.798Z,9.20
2023-04-18T01:21:50.894Z,9.18
2023-04-18T01:24:20.419Z,9.17
2023-04-18T01:26:49.934Z,9.17
2023-04-18T01:29:19.367Z,9.17
2023-04-18T01:31:53.921Z,9.17
2023-04-18T01:34:23.816Z,9.18
2023-04-18T01:36:53.509Z,9.17
2023-04-18T01:39:23.922Z,9.16
2023-04-18T01:42:00.132Z,9.15
2023-04-18T01:44:31.029Z,9.14
2023-04-18T01:47:00.699Z,9.11
2023-04-18T01:49:30.115Z,9.09
2023-04-18T01:52:01.286Z,9.05
2023-04-18T01:54:33.761Z,9.03
2023-04-18T01:57:05.974Z,9.01
2023-04-18T01:59:38.318Z,8.98
2023-04-18T02:02:08.220Z,8.97
2023-04-18T02:04:38.330Z,8.95
2023-04-18T02:07:07.684Z,8.95
2023-04-18T02:09:38.386Z,8.93
2023-04-18T02:12:08.002Z,8.94
2023-04-18T02:14:38.060Z,8.94
2023-04-18T02:17:11.004Z,8.93
2023-04-18T02:19:41.332Z,8.92
2023-04-18T02:22:11.640Z,8.90
2023-04-18T02:24:41.780Z,8.90
2023-04-18T02:27:12.102Z,8.90
2023-04-18T02:29:43.218Z,8.88
2023-04-18T02:32:12.716Z,8.84
2023-04-18T02:34:42.460Z,8.80
2023-04-18T02:37:12.081Z,8.75
2023-04-18T02:39:43.158Z,8.72
2023-04-18T02:42:12.609Z,8.68
2023-04-18T02:44:42.025Z,8.64
2023-04-18T02:47:11.814Z,8.61
2023-04-18T02:49:44.309Z,8.58
2023-04-18T02:52:15.199Z,8.56
2023-04-18T02:54:46.396Z,8.55
2023-04-18T02:57:18.822Z,8.53
2023-04-18T03:00:05.278Z,8.52
2023-04-18T03:02:53.923Z,8.49
2023-04-18T03:05:37.500Z,8.46
2023-04-18T03:08:07.912Z,8.43
2023-04-18T03:10:39.354Z,8.41
2023-04-18T03:13:09.303Z,8.38
2023-04-18T03:15:40.160Z,8.35
2023-04-18T03:18:12.881Z,8.30
2023-04-18T03:20:42.821Z,8.27
2023-04-18T03:23:13.436Z,8.23
2023-04-18T03:25:42.913Z,8.20
2023-04-18T03:28:13.866Z,8.17
2023-04-18T03:30:44.787Z,8.14
2023-04-18T03:33:17.190Z,8.11
2023-04-18T03:35:48.573Z,8.09
2023-04-18T03:38:18.112Z,8.07
2023-04-18T03:40:50.430Z,8.06
2023-04-18T03:43:28.413Z,8.04
2023-04-18T03:45:58.862Z,8.03
2023-04-18T03:48:29.372Z,8.03
2023-04-18T03:51:01.718Z,8.04
2023-04-18T03:53:31.568Z,8.05
2023-04-18T03:56:01.102Z,8.06
2023-04-18T03:58:43.583Z,8.08
2023-04-18T04:01:14.518Z,8.09
2023-04-18T04:03:44.101Z,8.10
2023-04-18T04:06:14.277Z,8.11
2023-04-18T04:08:43.906Z,8.13
2023-04-18T04:11:13.711Z,8.14
2023-04-18T04:13:43.656Z,8.17
2023-04-18T04:16:15.712Z,8.20
2023-04-18T04:18:45.944Z,8.24
2023-04-18T04:21:15.940Z,8.28
2023-04-18T04:23:49.637Z,8.33
2023-04-18T04:26:43.424Z,8.38
2023-04-18T04:29:19.423Z,8.44
2023-04-18T04:31:51.305Z,8.51
2023-04-18T04:34:28.187Z,8.59
2023-04-18T04:36:58.021Z,8.68
2023-04-18T04:39:28.753Z,8.75
2023-04-18T04:42:54.353Z,8.86
2023-04-18T04:45:39.752Z,8.94
2023-04-18T04:48:10.008Z,9.06
2023-04-18T04:50:42.335Z,9.22
2023-04-18T04:53:15.158Z,9.38
2023-04-18T04:55:46.351Z,9.56
2023-04-18T04:58:16.386Z,9.72
2023-04-18T05:01:07.868Z,9.89
2023-04-18T05:03:38.650Z,10.06
2023-04-18T05:06:09.156Z,10.21
2023-04-18T05:08:41.073Z,10.34
2023-04-18T05:11:11.511Z,10.47
2023-04-18T05:13:40.898Z,10.58
2023-04-18T05:16:10.930Z,10.66
2023-04-18T05:18:42.670Z,10.75
2023-04-18T05:21:12.192Z,10.88
2023-04-18T05:23:41.637Z,11.03
2023-04-18T05:26:11.362Z,11.12
2023-04-18T05:28:42.111Z,11.16
2023-04-18T05:31:13.995Z,11.23
2023-04-18T05:33:44.093Z,11.31
2023-04-18T05:36:13.799Z,11.40
2023-04-18T05:38:43.356Z,11.47
2023-04-18T05:41:12.840Z,11.48
2023-04-18T05:43:48.406Z,11.54
2023-04-18T05:46:28.955Z,11.62
2023-04-18T05:48:58.886Z,11.70
2023-04-18T05:51:28.998Z,11.76
2023-04-18T05:54:00.895Z,11.85
2023-04-18T05:56:30.830Z,11.90
2023-04-18T05:59:01.968Z,11.94
2023-04-18T06:01:33.529Z,12.01
2023-04-18T06:04:03.248Z,12.12
2023-04-18T06:06:36.113Z,12.22
2023-04-18T06:09:09.009Z,12.34
2023-04-18T06:11:40.267Z,12.43
2023-04-18T06:14:12.416Z,12.48
2023-04-18T06:16:44.806Z,12.54
2023-04-18T06:19:22.285Z,12.64
2023-04-18T06:21:53.962Z,12.78
2023-04-18T06:24:24.788Z,12.90
2023-04-18T06:26:58.017Z,12.96
2023-04-18T06:29:30.573Z,13.04
2023-04-18T06:32:00.247Z,13.13
2023-04-18T06:34:30.498Z,13.20
2023-04-18T06:37:04.934Z,13.33
2023-04-18T06:39:37.916Z,13.35
2023-04-18T06:42:11.034Z,13.42
2023-04-18T06:44:52.004Z,13.54
2023-04-18T06:47:22.895Z,13.69
2023-04-18T06:49:53.377Z,13.72
2023-04-18T06:52:25.616Z,13.85
2023-04-18T06:54:55.067Z,14.05
2023-04-18T06:57:25.764Z,14.19
2023-04-18T06:59:56.371Z,14.35
2023-04-18T07:02:25.924Z,14.42
2023-04-18T07:04:55.439Z,14.41
2023-04-18T07:07:26.583Z,14.42
2023-04-18T07:09:56.035Z,14.58
2023-04-18T07:12:25.792Z,14.68
2023-04-18T07:14:55.369Z,14.82
2023-04-18T07:17:24.904Z,14.91
2023-04-18T07:19:54.367Z,15.01
2023-04-18T07:22:24.068Z,15.15
2023-04-18T07:24:54.249Z,15.28
2023-04-18T07:27:24.114Z,15.27
2023-04-18T07:29:53.819Z,15.29
2023-04-18T07:32:23.982Z,15.39
2023-04-18T07:34:57.588Z,15.49
2023-04-18T07:37:27.201Z,15.56
2023-04-18T07:39:56.763Z,15.68
2023-04-18T07:42:27.471Z,15.75
2023-04-18T07:45:01.026Z,15.77
2023-04-18T07:47:34.734Z,15.83
2023-04-18T07:50:05.251Z,15.90
2023-04-18T07:52:50.558Z,15.85
2023-04-18T07:55:24.332Z,15.67
2023-04-18T07:57:55.272Z,15.56
2023-04-18T08:00:26.966Z,15.61
2023-04-18T08:03:09.955Z,15.63
2023-04-18T08:05:51.524Z,15.50
2023-04-18T08:08:23.190Z,15.43
2023-04-18T08:11:01.106Z,15.32
2023-04-18T08:13:34.816Z,15.28
2023-04-18T08:16:04.650Z,15.41
2023-04-18T08:18:36.218Z,15.52
2023-04-18T08:21:07.938Z,15.81
2023-04-18T08:23:49.013Z,16.27
2023-04-18T08:26:21.322Z,16.55
2023-04-18T08:28:52.025Z,16.63
2023-04-18T08:31:22.673Z,16.76
2023-04-18T08:33:54.613Z,16.78
2023-04-18T08:36:25.163Z,16.88
2023-04-18T08:38:56.663Z,16.98
2023-04-18T08:41:27.387Z,16.78
2023-04-18T08:43:57.209Z,16.61
2023-04-18T08:46:27.304Z,16.65
2023-04-18T08:48:59.853Z,16.71
2023-04-18T08:51:40.472Z,16.84
2023-04-18T08:54:10.807Z,16.95
2023-04-18T08:56:41.203Z,17.20
2023-04-18T08:59:11.840Z,17.46
2023-04-18T09:01:59.695Z,17.82
2023-04-18T09:04:49.552Z,18.19
2023-04-18T09:07:29.153Z,18.54
2023-04-18T09:09:58.920Z,18.92
2023-04-18T09:12:34.082Z,19.27
2023-04-18T09:15:15.673Z,19.46
2023-04-18T09:17:51.097Z,19.38
2023-04-18T09:20:38.290Z,19.21
2023-04-18T09:23:21.907Z,18.99
2023-04-18T09:25:52.591Z,18.95
2023-04-18T09:28:31.370Z,18.88
2023-04-18T09:31:15.758Z,18.89
2023-04-18T09:33:57.529Z,19.16
2023-04-18T09:36:28.105Z,19.28
2023-04-18T09:38:57.805Z,19.58
2023-04-18T09:41:27.771Z,19.83
2023-04-18T09:44:14.917Z,20.08
2023-04-18T09:46:50.365Z,20.26
2023-04-18T09:49:21.650Z,20.34
2023-04-18T09:51:55.093Z,20.26
2023-04-18T09:54:26.244Z,20.09
2023-04-18T09:56:58.178Z,19.98
2023-04-18T09:59:55.368Z,20.10
2023-04-18T10:02:29.676Z,20.22
2023-04-18T10:05:09.799Z,20.37
2023-04-18T10:07:45.868Z,20.38
2023-04-18T10:10:17.232Z,20.32
2023-04-18T10:12:54.423Z,20.04
2023-04-18T10:15:27.842Z,19.50
2023-04-18T10:18:05.864Z,19.21
2023-04-18T10:20:36.558Z,18.81
2023-04-18T10:23:41.060Z,18.69
2023-04-18T10:26:11.965Z,18.66
2023-04-18T10:29:01.730Z,18.62
2023-04-18T10:31:41.576Z,18.52
2023-04-18T10:34:20.061Z,18.42
2023-04-18T10:37:07.509Z,18.39
2023-04-18T10:40:07.573Z,18.39
2023-04-18T10:42:52.286Z,18.74
2023-04-18T10:45:26.145Z,19.15
2023-04-18T10:48:27.988Z,19.32
2023-04-18T10:51:23.849Z,19.17
2023-04-18T10:53:59.593Z,18.99
2023-04-18T10:56:30.355Z,18.98
2023-04-18T10:59:06.063Z,18.75
2023-04-18T11:01:39.814Z,18.71
2023-04-18T11:04:15.889Z,18.90
2023-04-18T11:06:58.466Z,19.04
2023-04-18T11:09:28.133Z,19.14
2023-04-18T11:12:10.994Z,19.16
2023-04-18T11:14:44.271Z,19.18
2023-04-18T11:17:36.058Z,19.22
2023-04-18T11:20:15.270Z,19.18
2023-04-18T11:22:54.011Z,19.13
2023-04-18T11:25:37.013Z,19.15
2023-04-18T11:28:06.505Z,19.40
2023-04-18T11:30:42.131Z,19.26
2023-04-18T11:33:14.082Z,19.13
2023-04-18T11:35:49.337Z,18.85
2023-04-18T11:38:22.217Z,18.97
2023-04-18T11:40:54.973Z,19.11
2023-04-18T11:43:25.906Z,19.46
2023-04-18T11:45:58.181Z,19.82
2023-04-18T11:48:45.638Z,20.05
2023-04-18T11:51:37.054Z,20.18
2023-04-18T11:54:06.806Z,20.23
2023-04-18T11:56:36.935Z,20.14
2023-04-18T11:59:10.098Z,20.02
2023-04-18T12:01:39.816Z,20.11
2023-04-18T12:04:09.937Z,20.22
2023-04-18T12:06:54.114Z,20.25
2023-04-18T12:09:27.825Z,20.36
2023-04-18T12:12:04.295Z,20.46
2023-04-18T12:14:36.105Z,20.49
2023-04-18T12:17:05.940Z,20.50
2023-04-18T12:19:35.654Z,20.42
2023-04-18T12:22:10.169Z,20.26
2023-04-18T12:24:39.594Z,20.10
2023-04-18T12:27:09.376Z,20.06
2023-04-18T12:29:39.975Z,20.13
2023-04-18T12:32:11.216Z,20.14
2023-04-18T12:34:40.879Z,20.20
2023-04-18T12:37:10.410Z,20.20
2023-04-18T12:39:39.928Z,20.24
2023-04-18T12:42:09.528Z,20.09
2023-04-18T12:44:40.392Z,19.96
2023-04-18T12:47:15.641Z,19.92
2023-04-18T12:49:45.755Z,19.87
2023-04-18T12:52:16.738Z,19.64
2023-04-18T12:54:47.302Z,19.47
2023-04-18T12:57:18.256Z,19.35
2023-04-18T12:59:48.073Z,19.35
2023-04-18T13:02:20.899Z,19.27
2023-04-18T13:04:56.272Z,19.30
2023-04-18T13:07:28.581Z,19.42
2023-04-18T13:09:59.311Z,19.52
2023-04-18T13:12:33.319Z,19.59
2023-04-18T13:15:03.925Z,19.74
2023-04-18T13:17:41.818Z,19.90
2023-04-18T13:20:14.152Z,19.98
2023-04-18T13:22:49.687Z,19.93
2023-04-18T13:25:20.223Z,19.90
2023-04-18T13:27:51.112Z,19.81
2023-04-18T13:30:21.330Z,19.73
2023-04-18T13:32:51.900Z,19.71
2023-04-18T13:35:22.208Z,19.66
2023-04-18T13:37:51.749Z,19.52
2023-04-18T13:40:21.741Z,19.40
2023-04-18T13:42:51.744Z,19.29
2023-04-18T13:45:21.384Z,19.30
2023-04-18T13:47:51.053Z,19.34
2023-04-18T13:50:20.852Z,19.44
2023-04-18T13:52:52.190Z,19.61
2023-04-18T13:55:21.952Z,19.96
2023-04-18T13:57:56.692Z,20.50
2023-04-18T14:00:27.069Z,20.86
2023-04-18T14:02:57.813Z,20.76
2023-04-18T14:05:27.606Z,20.72
2023-04-18T14:08:02.503Z,20.66
2023-04-18T14:10:32.085Z,20.59
2023-04-18T14:13:03.026Z,20.57
2023-04-18T14:15:34.014Z,20.49
2023-04-18T14:18:03.682Z,20.52
2023-04-18T14:20:37.598Z,20.47
2023-04-18T14:23:07.480Z,20.35
2023-04-18T14:25:38.549Z,20.27
2023-04-18T14:28:11.183Z,20.13
2023-04-18T14:30:40.934Z,19.99
2023-04-18T14:33:10.467Z,19.87
2023-04-18T14:35:40.543Z,19.75
2023-04-18T14:38:11.715Z,19.63
2023-04-18T14:40:42.183Z,19.52
2023-04-18T14:43:12.174Z,19.44
2023-04-18T14:45:41.630Z,19.36
2023-04-18T14:48:11.060Z,19.31
2023-04-18T14:50:40.970Z,19.20
2023-04-18T14:53:14.543Z,19.08
2023-04-18T14:55:47.614Z,19.04
2023-04-18T14:58:17.237Z,19.02
2023-04-18T15:00:46.802Z,18.97
2023-04-18T15:03:19.569Z,18.93
2023-04-18T15:05:49.517Z,18.89
2023-04-18T15:08:19.109Z,18.83
2023-04-18T15:10:48.919Z,18.74
2023-04-18T15:13:21.362Z,18.63
2023-04-18T15:15:56.807Z,18.51
2023-04-18T15:18:28.085Z,18.42
2023-04-18T15:21:02.728Z,18.31
2023-04-18T15:23:33.473Z,18.21
2023-04-18T15:26:05.126Z,18.14
2023-04-18T15:28:36.655Z,18.11
2023-04-18T15:31:08.013Z,18.05
2023-04-18T15:33:38.378Z,18.00
2023-04-18T15:36:09.668Z,17.95
2023-04-18T15:38:40.215Z,17.92
2023-04-18T15:41:09.727Z,17.87
2023-04-18T15:43:42.025Z,17.81
2023-04-18T15:46:16.515Z,17.74
2023-04-18T15:48:50.041Z,17.68
2023-04-18T15:51:31.041Z,17.61
2023-04-18T15:54:01.402Z,17.54
2023-04-18T15:56:33.151Z,17.48
2023-04-18T15:59:08.490Z,17.43
2023-04-18T16:01:37.931Z,17.39
2023-04-18T16:04:08.387Z,17.34
2023-04-18T16:06:40.407Z,17.28
2023-04-18T16:09:10.648Z,17.23
2023-04-18T16:11:44.051Z,17.20
2023-04-18T16:14:15.159Z,17.16
2023-04-18T16:16:44.817Z,17.12
2023-04-18T16:19:17.174Z,17.08
2023-04-18T16:21:49.382Z,17.02
2023-04-18T16:24:21.118Z,16.98
2023-04-18T16:26:53.356Z,16.93
2023-04-18T16:29:24.003Z,16.87
2023-04-18T16:31:54.286Z,16.79
2023-04-18T16:34:24.088Z,16.70
2023-04-18T16:36:55.073Z,16.58
2023-04-18T16:39:28.237Z,16.41
2023-04-18T16:42:07.923Z,16.24
2023-04-18T16:45:04.698Z,16.04
2023-04-18T16:47:36.466Z,15.78
2023-04-18T16:50:08.232Z,15.52
2023-04-18T16:52:39.072Z,15.32
2023-04-18T16:55:11.547Z,15.16
2023-04-18T16:57:42.619Z,15.03
2023-04-18T17:00:16.685Z,14.90
2023-04-18T17:02:47.415Z,14.77
2023-04-18T17:05:17.759Z,14.66
2023-04-18T17:07:49.922Z,14.54
2023-04-18T17:10:19.797Z,14.45
2023-04-18T17:12:49.563Z,14.37
2023-04-18T17:15:22.056Z,14.27
2023-04-18T17:17:52.528Z,14.18
2023-04-18T17:20:23.766Z,14.11
2023-04-18T17:22:57.635Z,14.04
2023-04-18T17:25:28.076Z,13.98
2023-04-18T17:27:57.618Z,13.91
2023-04-18T17:30:27.153Z,13.85
2023-04-18T17:32:56.678Z,13.78
2023-04-18T17:35:26.049Z,13.70
2023-04-18T17:37:56.734Z,13.64
2023-04-18T17:40:26.397Z,13.58
2023-04-18T17:42:55.786Z,13.50
2023-04-18T17:45:25.237Z,13.43
2023-04-18T17:47:57.706Z,13.37
2023-04-18T17:50:27.254Z,13.32
2023-04-18T17:52:58.335Z,13.27
2023-04-18T17:55:29.858Z,13.21
2023-04-18T17:58:00.199Z,13.16
2023-04-18T18:00:30.797Z,13.09
2023-04-18T18:03:01.942Z,13.04
2023-04-18T18:05:31.782Z,13.00
2023-04-18T18:08:01.187Z,12.94
2023-04-18T18:10:34.117Z,12.89
2023-04-18T18:13:04.028Z,12.86
2023-04-18T18:15:34.778Z,12.81
2023-04-18T18:18:04.383Z,12.77
2023-04-18T18:20:36.637Z,12.72
2023-04-18T18:23:06.967Z,12.68
2023-04-18T18:25:41.740Z,12.63
2023-04-18T18:28:12.150Z,12.60
2023-04-18T18:30:42.501Z,12.57
2023-04-18T18:33:11.900Z,12.56
2023-04-18T18:35:42.543Z,12.55
2023-04-18T18:38:13.259Z,12.54
2023-04-18T18:40:42.724Z,12.51
2023-04-18T18:43:13.350Z,12.52
2023-04-18T18:45:44.341Z,12.52
2023-04-18T18:48:15.061Z,12.50
2023-04-18T18:50:50.488Z,12.48
2023-04-18T18:53:23.738Z,12.47
2023-04-18T18:55:56.660Z,12.47
2023-04-18T18:58:26.221Z,12.46
2023-04-18T19:00:56.398Z,12.44
2023-04-18T19:03:26.174Z,12.43
2023-04-18T19:06:04.043Z,12.41
2023-04-18T19:08:34.269Z,12.38
2023-04-18T19:11:04.601Z,12.37
2023-04-18T19:13:37.219Z,12.36
2023-04-18T19:16:07.580Z,12.36
2023-04-18T19:18:41.589Z,12.36
2023-04-18T19:21:12.309Z,12.35
2023-04-18T19:23:42.331Z,12.35
2023-04-18T19:26:12.101Z,12.35
2023-04-18T19:28:41.634Z,12.34
2023-04-18T19:31:11.094Z,12.32
2023-04-18T19:33:41.585Z,12.30
2023-04-18T19:36:11.099Z,12.27
2023-04-18T19:38:43.393Z,12.26
2023-04-18T19:41:12.874Z,12.25
2023-04-18T19:43:43.851Z,12.25
2023-04-18T19:46:13.525Z,12.23
2023-04-18T19:48:45.677Z,12.23
2023-04-18T19:51:15.435Z,12.22
2023-04-18T19:53:44.939Z,12.21
2023-04-18T19:56:15.124Z,12.20
2023-04-18T19:58:49.027Z,12.18
2023-04-18T20:01:20.326Z,12.15
2023-04-18T20:03:50.422Z,12.13
2023-04-18T20:06:24.810Z,12.12
2023-04-18T20:08:55.535Z,12.11
2023-04-18T20:11:25.384Z,12.11
2023-04-18T20:13:56.189Z,12.11
2023-04-18T20:16:25.776Z,12.11
2023-04-18T20:18:55.281Z,12.09
2023-04-18T20:21:27.023Z,12.08
2023-04-18T20:23:58.211Z,12.07
2023-04-18T20:26:28.843Z,12.05
2023-04-18T20:28:58.409Z,12.02
2023-04-18T20:31:27.973Z,11.97
2023-04-18T20:33:59.429Z,11.95
2023-04-18T20:36:31.249Z,11.91
2023-04-18T20:39:02.509Z,11.87
2023-04-18T20:41:32.725Z,11.83
2023-04-18T20:44:05.535Z,11.79
2023-04-18T20:46:36.538Z,11.75
2023-04-18T20:49:10.305Z,11.71
2023-04-18T20:51:41.428Z,11.67
2023-04-18T20:54:11.189Z,11.62
2023-04-18T20:56:40.570Z,11.59
2023-04-18T20:59:10.926Z,11.59
2023-04-18T21:01:41.414Z,11.59
2023-04-18T21:04:11.033Z,11.56
2023-04-18T21:06:40.788Z,11.55
2023-04-18T21:09:10.569Z,11.53
2023-04-18T21:11:41.283Z,11.51
2023-04-18T21:14:10.965Z,11.50
2023-04-18T21:16:42.023Z,11.47
2023-04-18T21:19:11.667Z,11.45
2023-04-18T21:21:42.669Z,11.44
2023-04-18T21:24:13.010Z,11.42
2023-04-18T21:26:45.781Z,11.41
2023-04-18T21:29:17.218Z,11.36
2023-04-18T21:31:49.138Z,11.35
2023-04-18T21:34:18.797Z,11.33
2023-04-18T21:36:48.408Z,11.31
2023-04-18T21:39:17.917Z,11.29
2023-04-18T21:41:48.433Z,11.26
2023-04-18T21:44:19.024Z,11.23
2023-04-18T21:46:48.624Z,11.19
2023-04-18T21:49:20.501Z,11.17
2023-04-18T21:51:50.220Z,11.15
2023-04-18T21:54:21.262Z,11.12
2023-04-18T21:56:50.553Z,11.13
2023-04-18T21:59:21.255Z,11.10
2023-04-18T22:01:52.215Z,11.09
2023-04-18T22:04:26.204Z,11.07
2023-04-18T22:06:57.702Z,11.04
2023-04-18T22:09:27.114Z,11.03
2023-04-18T22:11:57.077Z,11.02
2023-04-18T22:14:28.373Z,11.01
2023-04-18T22:16:59.051Z,11.02
2023-04-18T22:19:29.629Z,11.01
2023-04-18T22:22:00.166Z,11.01
2023-04-18T22:24:29.597Z,11.00
2023-04-18T22:26:59.566Z,11.00
2023-04-18T22:29:29.269Z,10.99
2023-04-18T22:31:59.141Z,10.97
2023-04-18T22:34:31.073Z,10.94
2023-04-18T22:37:10.479Z,10.92
2023-04-18T22:39:42.053Z,10.90
2023-04-18T22:42:11.510Z,10.88
2023-04-18T22:44:41.026Z,10.86
2023-04-18T22:47:10.412Z,10.83
2023-04-18T22:49:40.663Z,10.81
2023-04-18T22:52:10.217Z,10.74
2023-04-18T22:54:40.302Z,10.72
2023-04-18T22:57:09.757Z,10.72
2023-04-18T22:59:39.873Z,10.69
2023-04-18T23:02:10.773Z,10.68
2023-04-18T23:04:42.559Z,10.67
2023-04-18T23:07:12.270Z,10.66
2023-04-18T23:09:42.030Z,10.63
2023-04-18T23:12:12.807Z,10.62
2023-04-18T23:14:42.373Z,10.60
2023-04-18T23:17:12.959Z,10.59
2023-04-18T23:19:45.259Z,10.55
2023-04-18T23:22:14.623Z,10.52
2023-04-18T23:24:45.368Z,10.49
2023-04-18T23:27:15.705Z,10.46
2023-04-18T23:29:49.001Z,10.44
2023-04-18T23:32:18.278Z,10.41
2023-04-18T23:34:47.733Z,10.39
2023-04-18T23:37:17.922Z,10.36
2023-04-18T23:39:48.064Z,10.34
2023-04-18T23:42:17.809Z,10.32
2023-04-18T23:44:47.170Z,10.30
2023-04-18T23:47:16.617Z,10.27
2023-04-18T23:49:46.094Z,10.25
2023-04-18T23:52:15.580Z,10.25
2023-04-18T23:54:45.879Z,10.25
2023-04-18T23:57:15.653Z,10.27
2023-04-18T23:59:45.085Z,10.28
